sensor_id;sensor_type;location;lat;lon;timestamp;temperature;humidity
61591;DHT22;57639;52.410;-1.966;2023-06-19T00:01:34;21.20;57.60
61591;DHT22;57639;52.410;-1.966;2023-06-19T00:04:40;21.20;57.60
61591;DHT22;57639;52.410;-1.966;2023-06-19T00:07:49;21.10;57.50
61591;DHT22;57639;52.410;-1.966;2023-06-19T00:10:56;21.20;57.60
61591;DHT22;57639;52.410;-1.966;2023-06-19T00:14:02;21.20;57.80
61591;DHT22;57639;52.410;-1.966;2023-06-19T00:17:08;21.10;57.70
61591;DHT22;57639;52.410;-1.966;2023-06-19T00:20:15;21.20;57.70
61591;DHT22;57639;52.410;-1.966;2023-06-19T00:23:24;21.10;57.70
61591;DHT22;57639;52.410;-1.966;2023-06-19T00:26:30;21.10;57.60
61591;DHT22;57639;52.410;-1.966;2023-06-19T00:29:37;21.10;57.60
61591;DHT22;57639;52.410;-1.966;2023-06-19T00:32:43;21.10;57.60
61591;DHT22;57639;52.410;-1.966;2023-06-19T00:35:53;21.10;57.60
61591;DHT22;57639;52.410;-1.966;2023-06-19T00:39:03;21.10;57.60
61591;DHT22;57639;52.410;-1.966;2023-06-19T00:42:09;21.10;57.60
61591;DHT22;57639;52.410;-1.966;2023-06-19T00:45:16;21.10;57.60
61591;DHT22;57639;52.410;-1.966;2023-06-19T00:48:27;21.10;57.60
61591;DHT22;57639;52.410;-1.966;2023-06-19T00:51:33;21.10;57.60
61591;DHT22;57639;52.410;-1.966;2023-06-19T00:54:42;21.10;57.50
61591;DHT22;57639;52.410;-1.966;2023-06-19T00:57:49;21.10;57.50
61591;DHT22;57639;52.410;-1.966;2023-06-19T01:00:57;21.10;57.50
61591;DHT22;57639;52.410;-1.966;2023-06-19T01:04:03;21.10;57.40
61591;DHT22;57639;52.410;-1.966;2023-06-19T01:07:12;21.10;57.50
61591;DHT22;57639;52.410;-1.966;2023-06-19T01:10:28;21.10;57.40
61591;DHT22;57639;52.410;-1.966;2023-06-19T01:13:43;21.10;57.30
61591;DHT22;57639;52.410;-1.966;2023-06-19T01:16:50;21.10;57.30
61591;DHT22;57639;52.410;-1.966;2023-06-19T01:19:58;21.10;57.30
61591;DHT22;57639;52.410;-1.966;2023-06-19T01:23:15;21.10;57.30
61591;DHT22;57639;52.410;-1.966;2023-06-19T01:26:23;21.10;57.20
61591;DHT22;57639;52.410;-1.966;2023-06-19T01:29:31;21.10;57.20
61591;DHT22;57639;52.410;-1.966;2023-06-19T01:32:43;21.10;57.10
61591;DHT22;57639;52.410;-1.966;2023-06-19T01:35:51;21.10;57.10
61591;DHT22;57639;52.410;-1.966;2023-06-19T01:39:00;21.00;57.10
61591;DHT22;57639;52.410;-1.966;2023-06-19T01:42:07;21.00;57.30
61591;DHT22;57639;52.410;-1.966;2023-06-19T01:45:14;21.00;57.20
61591;DHT22;57639;52.410;-1.966;2023-06-19T01:48:21;21.00;57.20
61591;DHT22;57639;52.410;-1.966;2023-06-19T01:51:27;21.00;57.30
61591;DHT22;57639;52.410;-1.966;2023-06-19T01:54:36;21.00;57.30
61591;DHT22;57639;52.410;-1.966;2023-06-19T01:57:47;21.00;57.20
61591;DHT22;57639;52.410;-1.966;2023-06-19T02:00:56;21.00;57.20
61591;DHT22;57639;52.410;-1.966;2023-06-19T02:04:02;21.00;57.20
61591;DHT22;57639;52.410;-1.966;2023-06-19T02:07:09;21.00;57.20
61591;DHT22;57639;52.410;-1.966;2023-06-19T02:10:18;21.00;57.20
61591;DHT22;57639;52.410;-1.966;2023-06-19T02:13:24;21.00;57.20
61591;DHT22;57639;52.410;-1.966;2023-06-19T02:16:30;21.00;57.20
61591;DHT22;57639;52.410;-1.966;2023-06-19T02:19:36;21.00;57.20
61591;DHT22;57639;52.410;-1.966;2023-06-19T02:22:43;21.00;57.20
61591;DHT22;57639;52.410;-1.966;2023-06-19T02:25:52;21.00;57.20
61591;DHT22;57639;52.410;-1.966;2023-06-19T02:28:58;21.00;57.10
61591;DHT22;57639;52.410;-1.966;2023-06-19T02:32:05;21.00;57.00
61591;DHT22;57639;52.410;-1.966;2023-06-19T02:35:11;21.00;56.90
61591;DHT22;57639;52.410;-1.966;2023-06-19T02:38:21;21.00;56.90
61591;DHT22;57639;52.410;-1.966;2023-06-19T02:41:30;21.00;56.80
61591;DHT22;57639;52.410;-1.966;2023-06-19T02:44:36;20.90;56.70
61591;DHT22;57639;52.410;-1.966;2023-06-19T02:47:42;20.90;56.70
61591;DHT22;57639;52.410;-1.966;2023-06-19T02:50:49;20.90;56.70
61591;DHT22;57639;52.410;-1.966;2023-06-19T02:53:55;20.90;56.60
61591;DHT22;57639;52.410;-1.966;2023-06-19T02:57:05;20.90;56.50
61591;DHT22;57639;52.410;-1.966;2023-06-19T03:00:13;20.90;56.60
61591;DHT22;57639;52.410;-1.966;2023-06-19T03:03:20;20.90;56.70
61591;DHT22;57639;52.410;-1.966;2023-06-19T03:06:26;20.90;56.70
61591;DHT22;57639;52.410;-1.966;2023-06-19T03:09:33;20.90;56.80
61591;DHT22;57639;52.410;-1.966;2023-06-19T03:12:42;20.90;56.70
61591;DHT22;57639;52.410;-1.966;2023-06-19T03:15:49;20.80;56.80
61591;DHT22;57639;52.410;-1.966;2023-06-19T03:18:55;20.90;56.80
61591;DHT22;57639;52.410;-1.966;2023-06-19T03:22:02;20.90;56.80
61591;DHT22;57639;52.410;-1.966;2023-06-19T03:25:08;20.90;56.80
61591;DHT22;57639;52.410;-1.966;2023-06-19T03:28:17;20.90;56.80
61591;DHT22;57639;52.410;-1.966;2023-06-19T03:31:24;20.90;56.70
61591;DHT22;57639;52.410;-1.966;2023-06-19T03:34:30;20.80;56.70
61591;DHT22;57639;52.410;-1.966;2023-06-19T03:37:36;20.90;56.70
61591;DHT22;57639;52.410;-1.966;2023-06-19T03:40:43;20.90;56.60
61591;DHT22;57639;52.410;-1.966;2023-06-19T03:43:53;20.90;56.60
61591;DHT22;57639;52.410;-1.966;2023-06-19T03:47:00;20.90;56.50
61591;DHT22;57639;52.410;-1.966;2023-06-19T03:50:07;20.90;56.50
61591;DHT22;57639;52.410;-1.966;2023-06-19T03:53:14;20.80;56.50
61591;DHT22;57639;52.410;-1.966;2023-06-19T03:56:20;20.80;56.40
61591;DHT22;57639;52.410;-1.966;2023-06-19T03:59:29;20.80;56.50
61591;DHT22;57639;52.410;-1.966;2023-06-19T04:02:35;20.80;56.40
61591;DHT22;57639;52.410;-1.966;2023-06-19T04:05:42;20.80;56.50
61591;DHT22;57639;52.410;-1.966;2023-06-19T04:08:48;20.80;56.50
61591;DHT22;57639;52.410;-1.966;2023-06-19T04:11:54;20.80;56.50
61591;DHT22;57639;52.410;-1.966;2023-06-19T04:15:04;20.80;56.40
61591;DHT22;57639;52.410;-1.966;2023-06-19T04:18:10;20.80;56.40
61591;DHT22;57639;52.410;-1.966;2023-06-19T04:21:17;20.80;56.40
61591;DHT22;57639;52.410;-1.966;2023-06-19T04:24:23;20.80;56.50
61591;DHT22;57639;52.410;-1.966;2023-06-19T04:27:29;20.80;56.50
61591;DHT22;57639;52.410;-1.966;2023-06-19T04:30:38;20.80;56.50
61591;DHT22;57639;52.410;-1.966;2023-06-19T04:33:46;20.70;56.40
61591;DHT22;57639;52.410;-1.966;2023-06-19T04:36:54;20.70;56.40
61591;DHT22;57639;52.410;-1.966;2023-06-19T04:40:01;20.70;56.40
61591;DHT22;57639;52.410;-1.966;2023-06-19T04:43:07;20.70;56.30
61591;DHT22;57639;52.410;-1.966;2023-06-19T04:46:16;20.70;56.30
61591;DHT22;57639;52.410;-1.966;2023-06-19T04:49:23;20.70;56.30
61591;DHT22;57639;52.410;-1.966;2023-06-19T04:52:29;20.70;56.30
61591;DHT22;57639;52.410;-1.966;2023-06-19T04:55:36;20.70;56.40
61591;DHT22;57639;52.410;-1.966;2023-06-19T04:58:42;20.70;56.40
61591;DHT22;57639;52.410;-1.966;2023-06-19T05:01:53;20.70;56.30
61591;DHT22;57639;52.410;-1.966;2023-06-19T05:04:59;20.70;56.30
61591;DHT22;57639;52.410;-1.966;2023-06-19T05:08:06;20.70;56.20
61591;DHT22;57639;52.410;-1.966;2023-06-19T05:11:12;20.70;56.30
61591;DHT22;57639;52.410;-1.966;2023-06-19T05:14:19;20.70;56.40
61591;DHT22;57639;52.410;-1.966;2023-06-19T05:17:28;20.70;56.30
61591;DHT22;57639;52.410;-1.966;2023-06-19T05:20:34;20.70;56.20
61591;DHT22;57639;52.410;-1.966;2023-06-19T05:23:40;20.70;56.20
61591;DHT22;57639;52.410;-1.966;2023-06-19T05:26:46;20.70;56.20
61591;DHT22;57639;52.410;-1.966;2023-06-19T05:29:54;20.70;56.10
61591;DHT22;57639;52.410;-1.966;2023-06-19T05:33:03;20.70;56.10
61591;DHT22;57639;52.410;-1.966;2023-06-19T05:36:09;20.70;56.00
61591;DHT22;57639;52.410;-1.966;2023-06-19T05:39:15;20.70;56.00
61591;DHT22;57639;52.410;-1.966;2023-06-19T05:42:22;20.70;55.90
61591;DHT22;57639;52.410;-1.966;2023-06-19T05:45:28;20.70;56.00
61591;DHT22;57639;52.410;-1.966;2023-06-19T05:48:37;20.70;55.90
61591;DHT22;57639;52.410;-1.966;2023-06-19T05:51:44;20.70;55.90
61591;DHT22;57639;52.410;-1.966;2023-06-19T05:54:51;20.70;55.90
61591;DHT22;57639;52.410;-1.966;2023-06-19T05:57:58;20.70;55.70
61591;DHT22;57639;52.410;-1.966;2023-06-19T06:01:04;20.60;55.50
61591;DHT22;57639;52.410;-1.966;2023-06-19T06:04:13;20.60;55.80
61591;DHT22;57639;52.410;-1.966;2023-06-19T06:07:19;20.60;55.90
61591;DHT22;57639;52.410;-1.966;2023-06-19T06:10:26;20.70;55.80
61591;DHT22;57639;52.410;-1.966;2023-06-19T06:13:32;20.60;55.40
61591;DHT22;57639;52.410;-1.966;2023-06-19T06:16:38;20.60;55.10
61591;DHT22;57639;52.410;-1.966;2023-06-19T06:19:47;20.60;55.10
61591;DHT22;57639;52.410;-1.966;2023-06-19T06:22:54;20.70;55.00
61591;DHT22;57639;52.410;-1.966;2023-06-19T06:26:02;20.70;55.00
61591;DHT22;57639;52.410;-1.966;2023-06-19T06:29:08;20.70;54.50
61591;DHT22;57639;52.410;-1.966;2023-06-19T06:32:16;20.70;54.60
61591;DHT22;57639;52.410;-1.966;2023-06-19T06:35:25;20.70;54.50
61591;DHT22;57639;52.410;-1.966;2023-06-19T06:38:31;20.80;54.40
61591;DHT22;57639;52.410;-1.966;2023-06-19T06:41:40;20.70;54.50
61591;DHT22;57639;52.410;-1.966;2023-06-19T06:44:48;20.70;54.70
61591;DHT22;57639;52.410;-1.966;2023-06-19T06:47:54;20.70;54.50
61591;DHT22;57639;52.410;-1.966;2023-06-19T06:51:04;20.70;54.50
61591;DHT22;57639;52.410;-1.966;2023-06-19T06:54:10;20.70;54.50
61591;DHT22;57639;52.410;-1.966;2023-06-19T06:57:18;20.80;54.70
61591;DHT22;57639;52.410;-1.966;2023-06-19T07:00:24;20.80;54.70
61591;DHT22;57639;52.410;-1.966;2023-06-19T07:03:30;20.80;54.90
61591;DHT22;57639;52.410;-1.966;2023-06-19T07:06:59;20.80;55.00
61591;DHT22;57639;52.410;-1.966;2023-06-19T07:10:23;20.80;55.50
61591;DHT22;57639;52.410;-1.966;2023-06-19T07:13:45;20.70;55.60
61591;DHT22;57639;52.410;-1.966;2023-06-19T07:17:09;20.80;56.10
61591;DHT22;57639;52.410;-1.966;2023-06-19T07:20:32;20.80;56.40
61591;DHT22;57639;52.410;-1.966;2023-06-19T07:24:00;20.90;56.60
61591;DHT22;57639;52.410;-1.966;2023-06-19T07:27:26;20.80;57.00
61591;DHT22;57639;52.410;-1.966;2023-06-19T07:30:49;20.80;57.40
61591;DHT22;57639;52.410;-1.966;2023-06-19T07:34:02;20.80;57.30
61591;DHT22;57639;52.410;-1.966;2023-06-19T07:37:08;20.90;57.20
61591;DHT22;57639;52.410;-1.966;2023-06-19T07:40:24;20.80;57.50
61591;DHT22;57639;52.410;-1.966;2023-06-19T07:43:31;20.80;57.80
61591;DHT22;57639;52.410;-1.966;2023-06-19T07:46:37;20.90;57.90
61591;DHT22;57639;52.410;-1.966;2023-06-19T07:49:43;20.80;58.10
61591;DHT22;57639;52.410;-1.966;2023-06-19T07:52:50;20.90;58.00
61591;DHT22;57639;52.410;-1.966;2023-06-19T07:56:00;20.90;57.80
61591;DHT22;57639;52.410;-1.966;2023-06-19T07:59:06;20.90;57.50
61591;DHT22;57639;52.410;-1.966;2023-06-19T08:02:12;20.90;57.50
61591;DHT22;57639;52.410;-1.966;2023-06-19T08:05:19;20.90;57.40
61591;DHT22;57639;52.410;-1.966;2023-06-19T08:08:25;20.90;57.80
61591;DHT22;57639;52.410;-1.966;2023-06-19T08:11:34;20.90;57.30
61591;DHT22;57639;52.410;-1.966;2023-06-19T08:14:42;20.90;57.70
61591;DHT22;57639;52.410;-1.966;2023-06-19T08:17:49;21.00;57.40
61591;DHT22;57639;52.410;-1.966;2023-06-19T08:20:55;20.90;57.40
61591;DHT22;57639;52.410;-1.966;2023-06-19T08:24:01;20.90;57.30
61591;DHT22;57639;52.410;-1.966;2023-06-19T08:27:10;20.90;57.30
61591;DHT22;57639;52.410;-1.966;2023-06-19T08:30:17;20.90;57.40
61591;DHT22;57639;52.410;-1.966;2023-06-19T08:33:26;20.90;57.40
61591;DHT22;57639;52.410;-1.966;2023-06-19T08:36:35;21.00;57.70
61591;DHT22;57639;52.410;-1.966;2023-06-19T08:39:42;20.90;57.60
61591;DHT22;57639;52.410;-1.966;2023-06-19T08:42:51;20.90;57.40
61591;DHT22;57639;52.410;-1.966;2023-06-19T08:46:08;21.00;57.50
61591;DHT22;57639;52.410;-1.966;2023-06-19T08:49:15;20.90;57.70
61591;DHT22;57639;52.410;-1.966;2023-06-19T08:52:21;20.90;57.70
61591;DHT22;57639;52.410;-1.966;2023-06-19T08:55:29;20.90;57.80
61591;DHT22;57639;52.410;-1.966;2023-06-19T08:58:38;21.00;57.80
61591;DHT22;57639;52.410;-1.966;2023-06-19T09:01:47;20.90;57.70
61591;DHT22;57639;52.410;-1.966;2023-06-19T09:04:55;21.00;57.70
61591;DHT22;57639;52.410;-1.966;2023-06-19T09:08:01;20.90;57.70
61591;DHT22;57639;52.410;-1.966;2023-06-19T09:11:07;21.00;57.80
61591;DHT22;57639;52.410;-1.966;2023-06-19T09:14:18;21.00;57.60
61591;DHT22;57639;52.410;-1.966;2023-06-19T09:17:25;21.00;57.60
61591;DHT22;57639;52.410;-1.966;2023-06-19T09:20:32;21.00;57.70
61591;DHT22;57639;52.410;-1.966;2023-06-19T09:23:41;21.00;57.70
61591;DHT22;57639;52.410;-1.966;2023-06-19T09:26:49;21.00;57.60
61591;DHT22;57639;52.410;-1.966;2023-06-19T09:30:07;21.00;57.80
61591;DHT22;57639;52.410;-1.966;2023-06-19T09:33:15;21.10;57.70
61591;DHT22;57639;52.410;-1.966;2023-06-19T09:36:21;21.10;57.70
61591;DHT22;57639;52.410;-1.966;2023-06-19T09:39:32;21.00;57.80
61591;DHT22;57639;52.410;-1.966;2023-06-19T09:42:42;21.00;57.80
61591;DHT22;57639;52.410;-1.966;2023-06-19T09:45:55;21.00;57.80
61591;DHT22;57639;52.410;-1.966;2023-06-19T09:49:03;21.00;57.90
61591;DHT22;57639;52.410;-1.966;2023-06-19T09:52:12;21.00;58.10
61591;DHT22;57639;52.410;-1.966;2023-06-19T09:55:19;21.00;58.20
61591;DHT22;57639;52.410;-1.966;2023-06-19T09:58:27;21.00;58.30
61591;DHT22;57639;52.410;-1.966;2023-06-19T10:01:38;20.90;58.20
61591;DHT22;57639;52.410;-1.966;2023-06-19T10:04:50;20.90;58.30
61591;DHT22;57639;52.410;-1.966;2023-06-19T10:07:56;20.90;58.20
61591;DHT22;57639;52.410;-1.966;2023-06-19T10:11:04;20.90;58.20
61591;DHT22;57639;52.410;-1.966;2023-06-19T10:14:10;21.00;58.50
61591;DHT22;57639;52.410;-1.966;2023-06-19T10:17:20;20.90;58.60
61591;DHT22;57639;52.410;-1.966;2023-06-19T10:20:28;21.00;58.60
61591;DHT22;57639;52.410;-1.966;2023-06-19T10:23:36;21.00;58.50
61591;DHT22;57639;52.410;-1.966;2023-06-19T10:26:56;21.00;58.60
61591;DHT22;57639;52.410;-1.966;2023-06-19T10:30:04;21.00;58.70
61591;DHT22;57639;52.410;-1.966;2023-06-19T10:33:13;21.00;58.70
61591;DHT22;57639;52.410;-1.966;2023-06-19T10:36:21;21.00;58.60
61591;DHT22;57639;52.410;-1.966;2023-06-19T10:39:28;21.10;58.80
61591;DHT22;57639;52.410;-1.966;2023-06-19T10:42:36;21.10;58.70
61591;DHT22;57639;52.410;-1.966;2023-06-19T10:45:43;21.10;58.80
61591;DHT22;57639;52.410;-1.966;2023-06-19T10:48:54;21.10;58.80
61591;DHT22;57639;52.410;-1.966;2023-06-19T10:52:07;21.10;58.90
61591;DHT22;57639;52.410;-1.966;2023-06-19T10:55:14;21.10;58.90
61591;DHT22;57639;52.410;-1.966;2023-06-19T10:58:21;21.10;58.90
61591;DHT22;57639;52.410;-1.966;2023-06-19T11:01:37;21.10;58.90
61591;DHT22;57639;52.410;-1.966;2023-06-19T11:04:46;21.20;58.90
61591;DHT22;57639;52.410;-1.966;2023-06-19T11:07:55;21.20;58.90
61591;DHT22;57639;52.410;-1.966;2023-06-19T11:11:03;21.20;58.80
61591;DHT22;57639;52.410;-1.966;2023-06-19T11:14:11;21.20;58.90
61591;DHT22;57639;52.410;-1.966;2023-06-19T11:17:18;21.30;59.10
61591;DHT22;57639;52.410;-1.966;2023-06-19T11:20:28;21.30;59.10
61591;DHT22;57639;52.410;-1.966;2023-06-19T11:23:35;21.30;59.20
61591;DHT22;57639;52.410;-1.966;2023-06-19T11:26:42;21.30;59.20
61591;DHT22;57639;52.410;-1.966;2023-06-19T11:29:55;21.30;59.10
61591;DHT22;57639;52.410;-1.966;2023-06-19T11:33:02;21.40;59.10
61591;DHT22;57639;52.410;-1.966;2023-06-19T11:36:17;21.40;59.00
61591;DHT22;57639;52.410;-1.966;2023-06-19T11:39:24;21.40;59.10
61591;DHT22;57639;52.410;-1.966;2023-06-19T11:42:33;21.40;59.30
61591;DHT22;57639;52.410;-1.966;2023-06-19T11:45:52;21.40;59.20
61591;DHT22;57639;52.410;-1.966;2023-06-19T11:49:09;21.50;59.20
61591;DHT22;57639;52.410;-1.966;2023-06-19T11:52:18;21.50;59.10
61591;DHT22;57639;52.410;-1.966;2023-06-19T11:55:25;21.50;59.10
61591;DHT22;57639;52.410;-1.966;2023-06-19T11:58:37;21.50;59.00
61591;DHT22;57639;52.410;-1.966;2023-06-19T12:01:44;21.50;59.00
61591;DHT22;57639;52.410;-1.966;2023-06-19T12:04:50;21.50;58.90
61591;DHT22;57639;52.410;-1.966;2023-06-19T12:07:59;21.50;58.90
61591;DHT22;57639;52.410;-1.966;2023-06-19T12:11:07;21.50;58.90
61591;DHT22;57639;52.410;-1.966;2023-06-19T12:14:13;21.50;58.70
61591;DHT22;57639;52.410;-1.966;2023-06-19T12:17:21;21.50;58.60
61591;DHT22;57639;52.410;-1.966;2023-06-19T12:20:27;21.60;58.50
61591;DHT22;57639;52.410;-1.966;2023-06-19T12:23:36;21.60;58.40
61591;DHT22;57639;52.410;-1.966;2023-06-19T12:26:43;21.60;58.40
61591;DHT22;57639;52.410;-1.966;2023-06-19T12:29:49;21.60;58.30
61591;DHT22;57639;52.410;-1.966;2023-06-19T12:32:55;21.60;58.20
61591;DHT22;57639;52.410;-1.966;2023-06-19T12:36:02;21.60;58.10
61591;DHT22;57639;52.410;-1.966;2023-06-19T12:39:11;21.60;58.10
61591;DHT22;57639;52.410;-1.966;2023-06-19T12:42:19;21.60;58.10
61591;DHT22;57639;52.410;-1.966;2023-06-19T12:45:26;21.60;58.00
61591;DHT22;57639;52.410;-1.966;2023-06-19T12:48:32;21.60;57.90
61591;DHT22;57639;52.410;-1.966;2023-06-19T12:51:38;21.60;57.90
61591;DHT22;57639;52.410;-1.966;2023-06-19T12:54:48;21.60;58.00
61591;DHT22;57639;52.410;-1.966;2023-06-19T12:57:54;21.60;58.00
61591;DHT22;57639;52.410;-1.966;2023-06-19T13:01:00;21.60;58.00
61591;DHT22;57639;52.410;-1.966;2023-06-19T13:04:06;21.60;58.00
61591;DHT22;57639;52.410;-1.966;2023-06-19T13:07:13;21.60;58.10
61591;DHT22;57639;52.410;-1.966;2023-06-19T13:10:22;21.60;58.10
61591;DHT22;57639;52.410;-1.966;2023-06-19T13:13:28;21.60;58.10
61591;DHT22;57639;52.410;-1.966;2023-06-19T13:16:34;21.60;58.10
61591;DHT22;57639;52.410;-1.966;2023-06-19T13:19:40;21.60;58.10
61591;DHT22;57639;52.410;-1.966;2023-06-19T13:22:46;21.50;58.10
61591;DHT22;57639;52.410;-1.966;2023-06-19T13:25:56;21.50;58.20
61591;DHT22;57639;52.410;-1.966;2023-06-19T13:29:02;21.60;58.20
61591;DHT22;57639;52.410;-1.966;2023-06-19T13:32:08;21.50;58.20
61591;DHT22;57639;52.410;-1.966;2023-06-19T13:35:15;21.50;58.30
61591;DHT22;57639;52.410;-1.966;2023-06-19T13:38:21;21.50;58.30
61591;DHT22;57639;52.410;-1.966;2023-06-19T13:41:30;21.50;58.30
61591;DHT22;57639;52.410;-1.966;2023-06-19T13:44:37;21.50;58.30
61591;DHT22;57639;52.410;-1.966;2023-06-19T13:47:43;21.50;58.30
61591;DHT22;57639;52.410;-1.966;2023-06-19T13:50:50;21.50;58.20
61591;DHT22;57639;52.410;-1.966;2023-06-19T13:53:56;21.60;58.20
61591;DHT22;57639;52.410;-1.966;2023-06-19T13:57:08;21.60;58.10
61591;DHT22;57639;52.410;-1.966;2023-06-19T14:00:15;21.60;58.00
61591;DHT22;57639;52.410;-1.966;2023-06-19T14:03:21;21.60;57.90
61591;DHT22;57639;52.410;-1.966;2023-06-19T14:06:28;21.60;57.90
61591;DHT22;57639;52.410;-1.966;2023-06-19T14:09:34;21.60;57.90
61591;DHT22;57639;52.410;-1.966;2023-06-19T14:12:43;21.60;58.00
61591;DHT22;57639;52.410;-1.966;2023-06-19T14:15:50;21.60;58.00
61591;DHT22;57639;52.410;-1.966;2023-06-19T14:18:56;21.60;57.90
61591;DHT22;57639;52.410;-1.966;2023-06-19T14:22:08;21.60;57.90
61591;DHT22;57639;52.410;-1.966;2023-06-19T14:25:15;21.60;57.80
61591;DHT22;57639;52.410;-1.966;2023-06-19T14:28:24;21.60;57.80
61591;DHT22;57639;52.410;-1.966;2023-06-19T14:31:33;21.60;57.80
61591;DHT22;57639;52.410;-1.966;2023-06-19T14:34:42;21.60;57.80
61591;DHT22;57639;52.410;-1.966;2023-06-19T14:37:49;21.70;57.90
61591;DHT22;57639;52.410;-1.966;2023-06-19T14:40:55;21.60;57.90
61591;DHT22;57639;52.410;-1.966;2023-06-19T14:44:05;21.60;57.90
61591;DHT22;57639;52.410;-1.966;2023-06-19T14:47:11;21.60;57.80
61591;DHT22;57639;52.410;-1.966;2023-06-19T14:50:18;21.70;57.90
61591;DHT22;57639;52.410;-1.966;2023-06-19T14:53:24;21.60;57.80
61591;DHT22;57639;52.410;-1.966;2023-06-19T14:56:30;21.60;57.80
61591;DHT22;57639;52.410;-1.966;2023-06-19T14:59:40;21.60;57.80
61591;DHT22;57639;52.410;-1.966;2023-06-19T15:02:46;21.60;57.90
61591;DHT22;57639;52.410;-1.966;2023-06-19T15:05:53;21.60;57.90
61591;DHT22;57639;52.410;-1.966;2023-06-19T15:08:59;21.60;57.90
61591;DHT22;57639;52.410;-1.966;2023-06-19T15:12:06;21.60;57.80
61591;DHT22;57639;52.410;-1.966;2023-06-19T15:15:15;21.70;57.80
61591;DHT22;57639;52.410;-1.966;2023-06-19T15:18:22;21.70;57.80
61591;DHT22;57639;52.410;-1.966;2023-06-19T15:21:28;21.70;57.70
61591;DHT22;57639;52.410;-1.966;2023-06-19T15:24:36;21.70;57.70
61591;DHT22;57639;52.410;-1.966;2023-06-19T15:27:43;21.70;57.70
61591;DHT22;57639;52.410;-1.966;2023-06-19T15:30:52;21.70;57.70
61591;DHT22;57639;52.410;-1.966;2023-06-19T15:33:58;21.70;57.70
61591;DHT22;57639;52.410;-1.966;2023-06-19T15:37:05;21.80;57.60
61591;DHT22;57639;52.410;-1.966;2023-06-19T15:40:11;21.70;57.60
61591;DHT22;57639;52.410;-1.966;2023-06-19T15:43:18;21.70;57.70
61591;DHT22;57639;52.410;-1.966;2023-06-19T15:46:34;21.70;57.70
61591;DHT22;57639;52.410;-1.966;2023-06-19T15:49:40;21.80;57.70
61591;DHT22;57639;52.410;-1.966;2023-06-19T15:52:46;21.70;57.70
61591;DHT22;57639;52.410;-1.966;2023-06-19T15:55:53;21.70;57.80
61591;DHT22;57639;52.410;-1.966;2023-06-19T15:58:59;21.70;57.60
61591;DHT22;57639;52.410;-1.966;2023-06-19T16:02:08;21.70;57.60
61591;DHT22;57639;52.410;-1.966;2023-06-19T16:05:15;21.70;57.70
61591;DHT22;57639;52.410;-1.966;2023-06-19T16:08:22;21.70;57.70
61591;DHT22;57639;52.410;-1.966;2023-06-19T16:11:29;21.80;57.70
61591;DHT22;57639;52.410;-1.966;2023-06-19T16:14:35;21.80;57.80
61591;DHT22;57639;52.410;-1.966;2023-06-19T16:17:44;21.80;57.60
61591;DHT22;57639;52.410;-1.966;2023-06-19T16:20:51;21.80;57.50
61591;DHT22;57639;52.410;-1.966;2023-06-19T16:23:57;21.80;57.60
61591;DHT22;57639;52.410;-1.966;2023-06-19T16:27:04;21.80;57.60
61591;DHT22;57639;52.410;-1.966;2023-06-19T16:30:11;21.90;57.50
61591;DHT22;57639;52.410;-1.966;2023-06-19T16:33:23;21.90;57.70
61591;DHT22;57639;52.410;-1.966;2023-06-19T16:36:30;21.90;57.70
61591;DHT22;57639;52.410;-1.966;2023-06-19T16:39:39;21.90;57.40
61591;DHT22;57639;52.410;-1.966;2023-06-19T16:42:50;21.90;57.60
61591;DHT22;57639;52.410;-1.966;2023-06-19T16:46:01;22.00;57.40
61591;DHT22;57639;52.410;-1.966;2023-06-19T16:49:13;22.10;58.00
61591;DHT22;57639;52.410;-1.966;2023-06-19T16:52:20;22.10;57.80
61591;DHT22;57639;52.410;-1.966;2023-06-19T16:55:27;22.10;58.40
61591;DHT22;57639;52.410;-1.966;2023-06-19T16:58:33;22.10;58.20
61591;DHT22;57639;52.410;-1.966;2023-06-19T17:01:39;22.10;58.10
61591;DHT22;57639;52.410;-1.966;2023-06-19T17:04:52;22.10;58.70
61591;DHT22;57639;52.410;-1.966;2023-06-19T17:08:01;22.00;58.60
61591;DHT22;57639;52.410;-1.966;2023-06-19T17:11:08;22.00;58.80
61591;DHT22;57639;52.410;-1.966;2023-06-19T17:14:14;22.00;58.90
61591;DHT22;57639;52.410;-1.966;2023-06-19T17:17:21;22.00;58.70
61591;DHT22;57639;52.410;-1.966;2023-06-19T17:20:31;22.00;58.90
61591;DHT22;57639;52.410;-1.966;2023-06-19T17:23:37;22.00;58.80
61591;DHT22;57639;52.410;-1.966;2023-06-19T17:26:51;22.00;58.90
61591;DHT22;57639;52.410;-1.966;2023-06-19T17:30:08;22.00;58.90
61591;DHT22;57639;52.410;-1.966;2023-06-19T17:33:15;22.00;59.00
61591;DHT22;57639;52.410;-1.966;2023-06-19T17:36:24;21.90;59.10
61591;DHT22;57639;52.410;-1.966;2023-06-19T17:39:31;21.90;59.20
61591;DHT22;57639;52.410;-1.966;2023-06-19T17:42:48;21.90;59.20
61591;DHT22;57639;52.410;-1.966;2023-06-19T17:46:02;21.90;59.30
61591;DHT22;57639;52.410;-1.966;2023-06-19T17:49:11;21.90;59.30
61591;DHT22;57639;52.410;-1.966;2023-06-19T17:52:31;21.90;59.30
61591;DHT22;57639;52.410;-1.966;2023-06-19T17:55:53;21.90;59.30
61591;DHT22;57639;52.410;-1.966;2023-06-19T17:59:03;21.90;59.30
61591;DHT22;57639;52.410;-1.966;2023-06-19T18:02:09;21.90;59.20
61591;DHT22;57639;52.410;-1.966;2023-06-19T18:05:16;21.90;59.00
61591;DHT22;57639;52.410;-1.966;2023-06-19T18:08:25;22.00;58.80
61591;DHT22;57639;52.410;-1.966;2023-06-19T18:11:31;22.00;58.60
61591;DHT22;57639;52.410;-1.966;2023-06-19T18:14:38;22.00;58.50
61591;DHT22;57639;52.410;-1.966;2023-06-19T18:17:44;22.00;58.40
61591;DHT22;57639;52.410;-1.966;2023-06-19T18:20:53;21.90;58.50
61591;DHT22;57639;52.410;-1.966;2023-06-19T18:24:03;21.90;58.50
61591;DHT22;57639;52.410;-1.966;2023-06-19T18:27:09;21.90;58.60
61591;DHT22;57639;52.410;-1.966;2023-06-19T18:30:16;21.90;58.60
61591;DHT22;57639;52.410;-1.966;2023-06-19T18:33:24;21.80;58.60
61591;DHT22;57639;52.410;-1.966;2023-06-19T18:36:30;21.80;58.60
61591;DHT22;57639;52.410;-1.966;2023-06-19T18:39:42;21.80;58.50
61591;DHT22;57639;52.410;-1.966;2023-06-19T18:42:49;21.80;58.50
61591;DHT22;57639;52.410;-1.966;2023-06-19T18:45:58;21.80;58.50
61591;DHT22;57639;52.410;-1.966;2023-06-19T18:49:07;21.80;58.50
61591;DHT22;57639;52.410;-1.966;2023-06-19T18:52:13;21.70;58.40
61591;DHT22;57639;52.410;-1.966;2023-06-19T18:55:23;21.80;58.40
61591;DHT22;57639;52.410;-1.966;2023-06-19T18:58:30;21.80;58.40
61591;DHT22;57639;52.410;-1.966;2023-06-19T19:01:36;21.80;58.30
61591;DHT22;57639;52.410;-1.966;2023-06-19T19:04:43;21.70;58.30
61591;DHT22;57639;52.410;-1.966;2023-06-19T19:07:49;21.80;58.30
61591;DHT22;57639;52.410;-1.966;2023-06-19T19:10:58;21.70;58.30
61591;DHT22;57639;52.410;-1.966;2023-06-19T19:14:05;21.70;58.40
61591;DHT22;57639;52.410;-1.966;2023-06-19T19:17:11;21.70;58.40
61591;DHT22;57639;52.410;-1.966;2023-06-19T19:20:18;21.70;58.40
61591;DHT22;57639;52.410;-1.966;2023-06-19T19:23:27;21.70;58.40
61591;DHT22;57639;52.410;-1.966;2023-06-19T19:26:36;21.70;58.30
61591;DHT22;57639;52.410;-1.966;2023-06-19T19:29:43;21.60;58.30